createdAt,value
2023-09-05T00:00:19.130Z,97.05
2023-09-05T00:02:49.590Z,97.12
2023-09-05T00:05:19.402Z,96.91
2023-09-05T00:07:46.429Z,96.55
2023-09-05T00:10:13.775Z,97.73
2023-09-05T00:15:19.299Z,97.75
2023-09-05T00:17:46.055Z,98.55
2023-09-05T00:20:16.531Z,97.97
2023-09-05T00:22:44.451Z,98.54
2023-09-05T00:25:16.263Z,98.61
2023-09-05T00:27:44.336Z,98.83
2023-09-05T00:30:14.181Z,99.25
2023-09-05T00:32:42.094Z,98.08
2023-09-05T00:35:09.040Z,98.87
2023-09-05T00:37:35.681Z,98.83
2023-09-05T00:40:02.296Z,99.46
2023-09-05T00:42:29.530Z,99.23
2023-09-05T00:44:56.873Z,100.00
2023-09-05T00:47:30.365Z,99.07
2023-09-05T00:49:57.793Z,98.55
2023-09-05T00:52:26.636Z,98.63
2023-09-05T00:54:55.753Z,100.00
2023-09-05T00:57:23.890Z,98.32
2023-09-05T00:59:51.101Z,98.83
2023-09-05T01:02:17.925Z,99.65
2023-09-05T01:04:44.804Z,100.00
2023-09-05T01:07:18.930Z,99.44
2023-09-05T01:09:48.259Z,100.00
2023-09-05T01:12:16.068Z,100.00
2023-09-05T01:14:42.671Z,100.00
2023-09-05T01:17:09.336Z,100.00
2023-09-05T01:19:42.311Z,100.00
2023-09-05T01:22:46.532Z,100.00
2023-09-05T01:25:14.487Z,100.00
2023-09-05T01:27:41.369Z,100.00
2023-09-05T01:30:10.599Z,100.00
2023-09-05T01:32:39.087Z,100.00
2023-09-05T01:35:06.249Z,100.00
2023-09-05T01:37:32.983Z,100.00
2023-09-05T01:39:59.585Z,100.00
2023-09-05T01:42:26.212Z,100.00
2023-09-05T01:44:52.853Z,100.00
2023-09-05T01:47:19.477Z,100.00
2023-09-05T01:49:46.053Z,100.00
2023-09-05T01:52:12.709Z,100.00
2023-09-05T01:54:41.044Z,100.00
2023-09-05T01:57:07.757Z,100.00
2023-09-05T01:59:34.434Z,100.00
2023-09-05T02:02:01.194Z,100.00
2023-09-05T02:04:27.903Z,100.00
2023-09-05T02:06:54.603Z,100.00
2023-09-05T02:09:21.264Z,100.00
2023-09-05T02:11:48.031Z,100.00
2023-09-05T02:14:14.674Z,100.00
2023-09-05T02:16:41.400Z,100.00
2023-09-05T02:19:08.081Z,100.00
2023-09-05T02:21:34.685Z,100.00
2023-09-05T02:24:01.329Z,100.00
2023-09-05T02:26:28.126Z,100.00
2023-09-05T02:28:54.776Z,100.00
2023-09-05T02:31:22.201Z,100.00
2023-09-05T02:33:48.918Z,100.00
2023-09-05T02:36:19.596Z,100.00
2023-09-05T02:38:47.430Z,100.00
2023-09-05T02:41:18.179Z,100.00
2023-09-05T02:43:49.630Z,100.00
2023-09-05T02:46:16.663Z,100.00
2023-09-05T02:48:44.036Z,100.00
2023-09-05T02:51:12.768Z,100.00
2023-09-05T02:53:39.866Z,100.00
2023-09-05T02:56:06.489Z,100.00
2023-09-05T02:58:33.572Z,100.00
2023-09-05T03:01:01.009Z,100.00
2023-09-05T03:03:28.674Z,100.00
2023-09-05T03:05:55.676Z,100.00
2023-09-05T03:08:22.457Z,100.00
2023-09-05T03:10:52.953Z,100.00
2023-09-05T03:13:20.737Z,100.00
2023-09-05T03:15:52.836Z,100.00
2023-09-05T03:18:19.810Z,100.00
2023-09-05T03:20:47.293Z,100.00
2023-09-05T03:23:15.004Z,100.00
2023-09-05T03:25:41.721Z,100.00
2023-09-05T03:28:13.231Z,100.00
2023-09-05T03:30:41.056Z,100.00
2023-09-05T03:33:07.991Z,100.00
2023-09-05T03:35:35.193Z,100.00
2023-09-05T03:38:03.131Z,100.00
2023-09-05T03:40:30.324Z,100.00
2023-09-05T03:42:57.028Z,100.00
2023-09-05T03:45:24.017Z,100.00
2023-09-05T03:47:58.481Z,100.00
2023-09-05T03:50:27.370Z,100.00
2023-09-05T03:52:54.034Z,100.00
2023-09-05T03:55:21.106Z,100.00
2023-09-05T03:57:47.802Z,100.00
2023-09-05T04:00:14.791Z,100.00
2023-09-05T04:02:41.595Z,100.00
2023-09-05T04:05:08.583Z,100.00
2023-09-05T04:07:35.627Z,100.00
2023-09-05T04:10:02.391Z,100.00
2023-09-05T04:12:29.019Z,100.00
2023-09-05T04:14:55.711Z,100.00
2023-09-05T04:17:22.317Z,100.00
2023-09-05T04:19:53.069Z,100.00
2023-09-05T04:22:21.885Z,100.00
2023-09-05T04:24:53.419Z,100.00
2023-09-05T04:27:22.951Z,100.00
2023-09-05T04:29:55.685Z,100.00
2023-09-05T04:32:29.868Z,100.00
2023-09-05T04:34:58.384Z,100.00
2023-09-05T04:37:25.655Z,100.00
2023-09-05T04:39:52.795Z,100.00
2023-09-05T04:42:19.535Z,100.00
2023-09-05T04:44:46.351Z,100.00
2023-09-05T04:47:26.501Z,100.00
2023-09-05T04:49:58.997Z,100.00
2023-09-05T04:52:28.306Z,100.00
2023-09-05T04:55:00.164Z,100.00
2023-09-05T04:57:28.049Z,100.00
2023-09-05T04:59:58.862Z,100.00
2023-09-05T05:02:26.886Z,100.00
2023-09-05T05:04:54.787Z,100.00
2023-09-05T05:07:22.254Z,100.00
2023-09-05T05:09:49.442Z,100.00
2023-09-05T05:12:18.269Z,100.00
2023-09-05T05:14:44.945Z,100.00
2023-09-05T05:17:14.298Z,100.00
2023-09-05T05:19:41.601Z,100.00
2023-09-05T05:22:08.326Z,100.00
2023-09-05T05:24:34.990Z,100.00
2023-09-05T05:27:01.622Z,100.00
2023-09-05T05:29:33.429Z,100.00
2023-09-05T05:32:02.110Z,100.00
2023-09-05T05:34:30.666Z,100.00
2023-09-05T05:36:57.461Z,100.00
2023-09-05T05:39:26.533Z,100.00
2023-09-05T05:41:53.249Z,100.00
2023-09-05T05:44:19.922Z,100.00
2023-09-05T05:46:46.566Z,100.00
2023-09-05T05:49:13.417Z,100.00
2023-09-05T05:51:40.896Z,100.00
2023-09-05T05:54:08.549Z,100.00
2023-09-05T05:56:36.369Z,100.00
2023-09-05T05:59:03.251Z,100.00
2023-09-05T06:01:29.973Z,100.00
2023-09-05T06:03:56.802Z,100.00
2023-09-05T06:06:23.540Z,100.00
2023-09-05T06:08:50.305Z,100.00
2023-09-05T06:11:17.048Z,100.00
2023-09-05T06:13:44.501Z,100.00
2023-09-05T06:16:11.390Z,100.00
2023-09-05T06:18:38.201Z,100.00
2023-09-05T06:21:04.829Z,100.00
2023-09-05T06:23:31.716Z,100.00
2023-09-05T06:25:58.603Z,100.00
2023-09-05T06:28:26.191Z,100.00
2023-09-05T06:31:00.284Z,100.00
2023-09-05T06:33:27.364Z,100.00
2023-09-05T06:35:54.248Z,100.00
2023-09-05T06:38:22.898Z,100.00
2023-09-05T06:40:50.192Z,100.00
2023-09-05T06:43:17.109Z,100.00
2023-09-05T06:45:43.855Z,100.00
2023-09-05T06:48:10.628Z,100.00
2023-09-05T06:50:37.332Z,100.00
2023-09-05T06:53:04.232Z,100.00
2023-09-05T06:55:35.918Z,100.00
2023-09-05T06:58:02.846Z,100.00
2023-09-05T07:00:29.555Z,100.00
2023-09-05T07:02:56.234Z,100.00
2023-09-05T07:05:23.536Z,100.00
2023-09-05T07:07:50.267Z,100.00
2023-09-05T07:10:16.993Z,100.00
2023-09-05T07:12:43.599Z,100.00
2023-09-05T07:15:10.513Z,100.00
2023-09-05T07:17:37.194Z,100.00
2023-09-05T07:20:04.241Z,100.00
2023-09-05T07:22:30.879Z,100.00
2023-09-05T07:24:57.607Z,100.00
2023-09-05T07:27:24.269Z,100.00
2023-09-05T07:29:51.200Z,100.00
2023-09-05T07:32:17.810Z,100.00
2023-09-05T07:34:44.489Z,100.00
2023-09-05T07:37:11.176Z,100.00
2023-09-05T07:39:37.932Z,100.00
2023-09-05T07:42:06.347Z,100.00
2023-09-05T07:44:33.064Z,100.00
2023-09-05T07:46:59.692Z,100.00
2023-09-05T07:49:27.493Z,100.00
2023-09-05T07:51:55.336Z,98.40
2023-09-05T07:54:26.487Z,96.98
2023-09-05T07:56:53.255Z,94.98
2023-09-05T07:59:20.587Z,91.56
2023-09-05T08:01:47.448Z,90.45
2023-09-05T08:04:14.139Z,89.12
2023-09-05T08:06:41.719Z,88.61
2023-09-05T08:09:08.431Z,88.08
2023-09-05T08:11:35.473Z,86.82
2023-09-05T08:14:02.146Z,83.83
2023-09-05T08:16:29.124Z,84.03
2023-09-05T08:18:55.755Z,84.89
2023-09-05T08:21:23.109Z,83.19
2023-09-05T08:23:52.530Z,83.46
2023-09-05T08:26:19.189Z,83.55
2023-09-05T08:28:47.130Z,82.83
2023-09-05T08:31:18.656Z,83.12
2023-09-05T08:33:46.066Z,83.51
2023-09-05T08:36:12.783Z,82.71
2023-09-05T08:38:39.498Z,83.00
2023-09-05T08:41:08.391Z,80.41
2023-09-05T08:43:38.789Z,77.95
2023-09-05T08:46:05.867Z,78.60
2023-09-05T08:48:51.439Z,78.19
2023-09-05T08:51:21.862Z,78.41
2023-09-05T08:53:59.798Z,78.73
2023-09-05T08:56:27.412Z,78.49
2023-09-05T08:58:56.373Z,79.18
2023-09-05T09:01:26.340Z,77.68
2023-09-05T09:03:54.951Z,76.37
2023-09-05T09:06:25.473Z,75.84
2023-09-05T09:08:53.792Z,74.66
2023-09-05T09:11:22.289Z,73.11
2023-09-05T09:13:52.747Z,73.53
2023-09-05T09:16:20.098Z,73.60
2023-09-05T09:18:50.932Z,71.75
2023-09-05T09:21:24.525Z,70.13
2023-09-05T09:23:52.066Z,68.44
2023-09-05T09:26:18.838Z,68.47
2023-09-05T09:28:46.846Z,68.38
2023-09-05T09:31:14.265Z,69.63
2023-09-05T09:33:42.344Z,70.55
2023-09-05T09:36:11.879Z,69.15
2023-09-05T09:38:40.078Z,67.33
2023-09-05T09:41:08.171Z,67.77
2023-09-05T09:43:37.062Z,69.49
2023-09-05T09:46:06.215Z,68.78
2023-09-05T09:48:37.974Z,69.06
2023-09-05T09:51:06.710Z,68.60
2023-09-05T09:53:41.257Z,68.48
2023-09-05T09:56:12.796Z,67.30
2023-09-05T09:58:42.267Z,67.31
2023-09-05T10:01:15.319Z,68.32
2023-09-05T10:03:45.643Z,68.22
2023-09-05T10:06:12.814Z,68.09
2023-09-05T10:08:45.086Z,65.59
2023-09-05T10:11:15.605Z,65.35
2023-09-05T10:13:43.892Z,64.04
2023-09-05T10:16:13.742Z,63.46
2023-09-05T10:18:44.852Z,63.22
2023-09-05T10:21:12.949Z,63.75
2023-09-05T10:23:40.829Z,62.58
2023-09-05T10:26:08.561Z,62.51
2023-09-05T10:28:35.310Z,62.42
2023-09-05T10:31:07.023Z,61.38
2023-09-05T10:33:36.834Z,61.44
2023-09-05T10:36:05.057Z,62.06
2023-09-05T10:38:37.577Z,61.56
2023-09-05T10:41:04.816Z,61.00
2023-09-05T10:43:31.596Z,60.87
2023-09-05T10:46:02.741Z,62.99
2023-09-05T10:48:42.053Z,60.57
2023-09-05T10:51:14.177Z,61.62
2023-09-05T10:53:47.582Z,61.09
2023-09-05T10:56:44.669Z,60.83
2023-09-05T10:59:28.344Z,59.32
2023-09-05T11:01:58.172Z,59.91
2023-09-05T11:04:31.607Z,59.85
2023-09-05T11:06:59.949Z,59.65
2023-09-05T11:09:26.732Z,59.59
2023-09-05T11:11:54.521Z,60.48
2023-09-05T11:14:31.950Z,61.60
2023-09-05T11:16:58.838Z,60.39
2023-09-05T11:19:39.587Z,58.94
2023-09-05T11:22:26.581Z,58.79
2023-09-05T11:24:55.224Z,56.85
2023-09-05T11:27:25.017Z,56.84
2023-09-05T11:29:54.025Z,57.31
2023-09-05T11:32:20.756Z,55.67
2023-09-05T11:34:49.062Z,56.23
2023-09-05T11:37:21.164Z,54.76
2023-09-05T11:39:49.789Z,53.66
2023-09-05T11:42:32.276Z,54.11
2023-09-05T11:44:59.690Z,54.58
2023-09-05T11:47:29.333Z,53.38
2023-09-05T11:49:58.751Z,53.48
2023-09-05T11:52:26.239Z,51.51
2023-09-05T11:54:54.486Z,51.56
2023-09-05T11:57:23.363Z,50.51
2023-09-05T11:59:51.140Z,49.54
2023-09-05T12:02:19.785Z,51.43
2023-09-05T12:04:50.864Z,52.24
2023-09-05T12:07:17.698Z,47.56
2023-09-05T12:09:48.508Z,48.12
2023-09-05T12:12:19.491Z,52.54
2023-09-05T12:14:55.299Z,49.69
2023-09-05T12:17:25.148Z,48.40
2023-09-05T12:19:54.181Z,48.99
2023-09-05T12:22:30.668Z,44.59
2023-09-05T12:25:11.967Z,46.46
2023-09-05T12:27:40.807Z,47.13
2023-09-05T12:30:25.021Z,45.64
2023-09-05T12:32:53.697Z,43.58
2023-09-05T12:35:20.416Z,42.26
2023-09-05T12:37:47.072Z,40.80
2023-09-05T12:40:16.234Z,41.33
2023-09-05T12:42:45.638Z,41.15
2023-09-05T12:45:14.425Z,40.74
2023-09-05T12:47:41.910Z,40.55
2023-09-05T12:50:13.677Z,40.64
2023-09-05T12:52:43.848Z,43.15
2023-09-05T12:55:12.179Z,42.87
2023-09-05T12:57:40.304Z,38.91
2023-09-05T13:00:08.846Z,39.93
2023-09-05T13:02:36.598Z,38.23
2023-09-05T13:05:03.393Z,39.42
2023-09-05T13:07:30.797Z,42.26
2023-09-05T13:09:57.835Z,40.40
2023-09-05T13:12:24.534Z,40.66
2023-09-05T13:14:51.262Z,38.01
2023-09-05T13:17:18.348Z,41.52
2023-09-05T13:19:46.137Z,38.11
2023-09-05T13:22:18.305Z,37.58
2023-09-05T13:24:46.046Z,37.48
2023-09-05T13:27:13.534Z,37.91
2023-09-05T13:29:40.659Z,38.24
2023-09-05T13:32:11.727Z,37.27
2023-09-05T13:34:39.016Z,35.93
2023-09-05T13:37:06.077Z,38.83
2023-09-05T13:39:33.410Z,39.43
2023-09-05T13:42:00.239Z,39.64
2023-09-05T13:44:27.232Z,38.89
2023-09-05T13:46:54.063Z,37.47
2023-09-05T13:49:21.231Z,37.33
2023-09-05T13:51:48.662Z,38.66
2023-09-05T13:54:15.508Z,36.04
2023-09-05T13:56:42.298Z,36.88
2023-09-05T13:59:09.250Z,37.92
2023-09-05T14:01:35.922Z,38.46
2023-09-05T14:04:02.813Z,38.08
2023-09-05T14:06:29.633Z,41.40
2023-09-05T14:08:56.359Z,37.63
2023-09-05T14:11:23.073Z,36.84
2023-09-05T14:13:49.880Z,37.40
2023-09-05T14:16:20.544Z,37.26
2023-09-05T14:18:48.329Z,38.39
2023-09-05T14:21:15.436Z,38.40
2023-09-05T14:23:42.365Z,38.28
2023-09-05T14:26:09.102Z,38.46
2023-09-05T14:28:35.757Z,39.89
2023-09-05T14:31:02.396Z,36.17
2023-09-05T14:33:29.213Z,36.50
2023-09-05T14:35:56.260Z,37.53
2023-09-05T14:38:23.708Z,36.88
2023-09-05T14:40:50.402Z,40.03
2023-09-05T14:43:20.511Z,39.86
2023-09-05T14:45:47.386Z,37.47
2023-09-05T14:48:14.961Z,38.31
2023-09-05T14:50:41.739Z,38.13
2023-09-05T14:53:08.433Z,39.06
2023-09-05T14:55:35.148Z,37.20
2023-09-05T14:58:01.897Z,40.71
2023-09-05T15:00:30.085Z,38.59
2023-09-05T15:02:57.057Z,38.89
2023-09-05T15:05:23.763Z,38.88
2023-09-05T15:07:51.214Z,40.00
2023-09-05T15:10:18.604Z,41.32
2023-09-05T15:12:45.370Z,40.48
2023-09-05T15:15:12.151Z,39.57
2023-09-05T15:17:41.382Z,40.22
2023-09-05T15:20:11.600Z,40.01
2023-09-05T15:22:38.821Z,40.74
2023-09-05T15:25:19.437Z,39.49
2023-09-05T15:27:47.280Z,40.41
2023-09-05T15:30:19.388Z,41.37
2023-09-05T15:32:49.861Z,39.31
2023-09-05T15:35:17.133Z,40.23
2023-09-05T15:37:43.923Z,40.55
2023-09-05T15:40:11.064Z,40.50
2023-09-05T15:42:37.888Z,41.35
2023-09-05T15:45:09.722Z,39.94
2023-09-05T15:47:36.967Z,40.08
2023-09-05T15:50:04.723Z,41.30
2023-09-05T15:52:31.504Z,42.01
2023-09-05T15:54:58.252Z,41.30
2023-09-05T15:57:25.244Z,41.46
2023-09-05T15:59:53.116Z,42.05
2023-09-05T16:02:20.025Z,42.82
2023-09-05T16:04:46.732Z,42.39
2023-09-05T16:07:14.222Z,43.31
2023-09-05T16:09:41.017Z,43.02
2023-09-05T16:12:09.058Z,42.63
2023-09-05T16:14:35.830Z,43.84
2023-09-05T16:17:02.537Z,43.60
2023-09-05T16:19:30.319Z,43.54
2023-09-05T16:21:57.236Z,42.95
2023-09-05T16:24:24.146Z,43.95
2023-09-05T16:26:51.088Z,44.39
2023-09-05T16:29:17.893Z,44.50
2023-09-05T16:31:45.674Z,45.18
2023-09-05T16:34:12.426Z,45.22
2023-09-05T16:36:39.579Z,44.94
2023-09-05T16:39:08.253Z,44.76
2023-09-05T16:41:35.034Z,44.63
2023-09-05T16:44:02.497Z,45.74
2023-09-05T16:46:30.938Z,45.60
2023-09-05T16:48:58.257Z,46.02
2023-09-05T16:51:27.955Z,45.94
2023-09-05T16:53:54.955Z,46.44
2023-09-05T16:56:22.093Z,46.60
2023-09-05T16:58:49.249Z,47.64
2023-09-05T17:01:16.370Z,47.97
2023-09-05T17:03:43.811Z,48.20
2023-09-05T17:06:10.933Z,49.10
2023-09-05T17:08:37.724Z,49.03
2023-09-05T17:11:04.712Z,49.13
2023-09-05T17:13:32.044Z,49.63
2023-09-05T17:15:59.008Z,49.64
2023-09-05T17:18:27.086Z,50.62
2023-09-05T17:20:55.044Z,50.47
2023-09-05T17:23:22.978Z,50.27
2023-09-05T17:25:50.540Z,50.91
2023-09-05T17:28:21.854Z,51.69
2023-09-05T17:30:49.808Z,52.17
2023-09-05T17:33:16.925Z,52.41
2023-09-05T17:35:44.597Z,52.33
2023-09-05T17:38:11.884Z,51.86
2023-09-05T17:40:46.692Z,52.23
2023-09-05T17:43:14.093Z,52.38
2023-09-05T17:45:43.107Z,51.98
2023-09-05T17:48:19.036Z,53.06
2023-09-05T17:50:55.132Z,54.46
2023-09-05T17:53:22.732Z,54.86
2023-09-05T17:55:49.392Z,54.76
2023-09-05T17:58:16.095Z,55.86
2023-09-05T18:00:44.163Z,56.96
2023-09-05T18:03:12.103Z,56.38
2023-09-05T18:05:49.825Z,56.74
2023-09-05T18:08:17.376Z,58.03
2023-09-05T18:10:45.290Z,58.24
2023-09-05T18:13:12.161Z,58.59
2023-09-05T18:15:38.916Z,59.64
2023-09-05T18:18:06.897Z,59.41
2023-09-05T18:20:35.955Z,59.94
2023-09-05T18:23:03.802Z,61.01
2023-09-05T18:25:34.274Z,61.79
2023-09-05T18:28:00.990Z,61.86
2023-09-05T18:30:30.714Z,62.31
2023-09-05T18:32:57.592Z,63.30
2023-09-05T18:35:24.504Z,64.01
2023-09-05T18:37:51.117Z,64.26
2023-09-05T18:40:17.812Z,64.88
2023-09-05T18:42:44.441Z,65.77
2023-09-05T18:45:11.468Z,66.05
2023-09-05T18:47:38.664Z,66.66
2023-09-05T18:50:06.154Z,67.37
2023-09-05T18:52:32.805Z,67.24
2023-09-05T18:54:59.579Z,67.66
2023-09-05T18:57:26.446Z,68.21
2023-09-05T18:59:54.243Z,67.87
2023-09-05T19:02:26.505Z,68.55
2023-09-05T19:04:53.485Z,69.09
2023-09-05T19:07:20.137Z,69.87
2023-09-05T19:09:46.877Z,70.51
2023-09-05T19:12:14.822Z,70.81
2023-09-05T19:14:41.625Z,71.09
2023-09-05T19:17:08.323Z,71.05
2023-09-05T19:19:35.437Z,72.11
2023-09-05T19:22:05.019Z,72.61
2023-09-05T19:24:33.731Z,73.40
2023-09-05T19:27:00.458Z,73.85
2023-09-05T19:29:29.832Z,73.37
2023-09-05T19:31:56.833Z,74.16
2023-09-05T19:34:23.933Z,74.36
2023-09-05T19:36:50.734Z,74.65
2023-09-05T19:39:17.983Z,74.66
2023-09-05T19:41:44.844Z,75.36
2023-09-05T19:44:11.628Z,75.61
2023-09-05T19:46:38.315Z,76.75
2023-09-05T19:49:05.854Z,77.67
2023-09-05T19:51:32.637Z,77.33
2023-09-05T19:53:59.389Z,77.42
2023-09-05T19:56:26.161Z,78.13
2023-09-05T19:58:54.089Z,78.85
2023-09-05T20:01:20.919Z,78.79
2023-09-05T20:03:48.535Z,78.52
2023-09-05T20:06:15.582Z,79.84
2023-09-05T20:08:42.416Z,79.17
2023-09-05T20:11:09.053Z,79.19
2023-09-05T20:13:35.797Z,78.86
2023-09-05T20:16:02.506Z,79.93
2023-09-05T20:18:29.407Z,80.13
2023-09-05T20:21:03.151Z,80.43
2023-09-05T20:23:29.950Z,80.46
2023-09-05T20:25:56.783Z,81.33
2023-09-05T20:28:23.432Z,81.59
2023-09-05T20:30:54.802Z,81.55
2023-09-05T20:33:23.947Z,82.08
2023-09-05T20:35:52.927Z,82.52
2023-09-05T20:38:20.850Z,82.11
2023-09-05T20:40:51.118Z,81.65
2023-09-05T20:43:18.502Z,82.69
2023-09-05T20:45:45.649Z,82.89
2023-09-05T20:48:12.630Z,83.15
2023-09-05T20:50:39.968Z,84.40
2023-09-05T20:53:06.980Z,84.61
2023-09-05T20:55:34.189Z,86.04
2023-09-05T20:58:01.067Z,85.05
2023-09-05T21:00:29.385Z,85.30
2023-09-05T21:02:59.560Z,85.01
2023-09-05T21:05:30.155Z,86.31
2023-09-05T21:07:56.713Z,85.38
2023-09-05T21:10:23.361Z,86.53
2023-09-05T21:12:49.983Z,86.76
2023-09-05T21:15:17.065Z,87.06
2023-09-05T21:17:48.274Z,87.45
2023-09-05T21:20:15.633Z,86.62
2023-09-05T21:22:42.944Z,87.06
2023-09-05T21:25:10.812Z,87.41
2023-09-05T21:27:37.893Z,87.03
2023-09-05T21:30:08.798Z,88.26
2023-09-05T21:32:36.329Z,88.64
2023-09-05T21:35:04.006Z,88.62
2023-09-05T21:37:31.037Z,88.18
2023-09-05T21:39:57.883Z,89.82
2023-09-05T21:42:27.692Z,89.24
2023-09-05T21:44:55.822Z,89.79
2023-09-05T21:47:22.628Z,89.79
2023-09-05T21:49:51.416Z,88.89
2023-09-05T21:52:18.672Z,90.17
2023-09-05T21:54:45.713Z,91.40
2023-09-05T21:57:12.519Z,90.65
2023-09-05T21:59:39.127Z,91.19
2023-09-05T22:02:05.846Z,90.53
2023-09-05T22:06:59.212Z,92.06
2023-09-05T22:09:25.835Z,92.63
2023-09-05T22:11:52.461Z,92.27
2023-09-05T22:14:19.061Z,93.28
2023-09-05T22:16:45.701Z,92.28
2023-09-05T22:19:29.708Z,93.13
2023-09-05T22:21:59.569Z,92.83
2023-09-05T22:24:26.670Z,93.77
2023-09-05T22:26:54.193Z,93.71
2023-09-05T22:29:20.741Z,91.99
2023-09-05T22:31:47.433Z,93.25
2023-09-05T22:34:14.759Z,94.48
2023-09-05T22:36:41.348Z,93.53
2023-09-05T22:39:08.631Z,93.92
2023-09-05T22:41:35.263Z,95.66
2023-09-05T22:44:01.819Z,94.30
2023-09-05T22:46:28.448Z,94.92
2023-09-05T22:48:55.099Z,95.83
2023-09-05T22:51:23.054Z,94.89
2023-09-05T22:53:49.733Z,95.07
2023-09-05T22:56:19.005Z,94.72
2023-09-05T22:58:55.201Z,95.79
2023-09-05T23:01:21.944Z,95.35
2023-09-05T23:03:48.797Z,96.87
2023-09-05T23:06:15.798Z,96.94
2023-09-05T23:08:42.598Z,96.54
2023-09-05T23:11:09.424Z,96.35
2023-09-05T23:13:39.491Z,95.42
2023-09-05T23:16:06.481Z,96.44
2023-09-05T23:18:38.587Z,96.66
2023-09-05T23:21:06.451Z,96.56
2023-09-05T23:23:35.873Z,97.22
2023-09-05T23:26:04.231Z,97.29
2023-09-05T23:28:31.954Z,97.67
2023-09-05T23:31:01.564Z,98.64
2023-09-05T23:33:30.711Z,98.41
2023-09-05T23:35:57.811Z,98.53
2023-09-05T23:38:25.007Z,98.81
2023-09-05T23:40:51.878Z,98.06
2023-09-05T23:43:18.640Z,99.16
2023-09-05T23:45:53.818Z,99.39
2023-09-05T23:48:21.128Z,98.09
2023-09-05T23:50:47.920Z,98.99
2023-09-05T23:53:14.637Z,99.95
2023-09-05T23:55:45.508Z,99.79
2023-09-05T23:58:12.775Z,100.00
